Black Brook, Wisconsin
Current Conditions -  °F | °C
As of 10:15 PM on Sunday 21 Dec 2014 (Local Time) from KRNH Reporting Station
Light Rain Light Rain  
Wind Chill: 28°   Ceiling: 1000
Heat Index: 35°   Visibility: 3mi
Dew Point: 35°   Wind: 9mph
Humidity: 100%   Direction: 170°S
Pressure: 29.75"   Gusts: NA
Location:  45.2417°N, 92.2543°W
Report Text: KRNH 220415Z AUTO 17008KT 3SM -RA OVC010 02/02 A2975 RMK AO2 P0003 T00180018
Loading
Personal Weather Stations






























Interactive Weather Map New forecast layout! Learn more

10-Day Weather Forecast

Advertisements
Track Severe Weather on mobile